sensor_id;sensor_type;location;lat;lon;timestamp;pressure;altitude;pressure_sealevel;temperature;humidity
78573;BME280;67862;0.000;0.000;2023-02-15T05:43:19;100736.41;;;22.72;47.82
78573;BME280;67862;0.000;0.000;2023-02-15T05:45:46;100737.44;;;22.66;48.02
78573;BME280;67862;0.000;0.000;2023-02-15T05:48:11;100748.13;;;22.67;46.92
78573;BME280;67862;0.000;0.000;2023-02-15T05:50:36;100748.41;;;22.66;47.64
78573;BME280;67862;0.000;0.000;2023-02-15T05:53:02;100746.22;;;22.68;47.67
78573;BME280;67862;0.000;0.000;2023-02-15T05:55:27;100746.50;;;22.66;47.83
78573;BME280;67862;0.000;0.000;2023-02-15T05:58:33;100750.72;;;22.20;51.00
78573;BME280;67862;0.000;0.000;2023-02-15T06:00:58;100762.91;;;21.90;51.65
78573;BME280;67862;0.000;0.000;2023-02-15T06:03:24;100759.56;;;21.83;52.13
78573;BME280;67862;0.000;0.000;2023-02-15T06:05:51;100756.75;;;21.78;51.98
78573;BME280;67862;0.000;0.000;2023-02-15T06:08:16;100753.47;;;21.76;52.17
78573;BME280;67862;0.000;0.000;2023-02-15T06:10:41;100754.03;;;21.78;52.11
78573;BME280;67862;0.000;0.000;2023-02-15T06:13:07;100752.38;;;21.77;52.13
78573;BME280;67862;0.000;0.000;2023-02-15T06:15:32;100758.94;;;21.76;52.48
78573;BME280;67862;0.000;0.000;2023-02-15T06:17:57;100756.72;;;21.73;52.59
78573;BME280;67862;0.000;0.000;2023-02-15T06:20:23;100761.13;;;21.79;52.16
78573;BME280;67862;0.000;0.000;2023-02-15T06:22:48;100756.44;;;21.75;52.46
78573;BME280;67862;0.000;0.000;2023-02-15T06:25:13;100758.09;;;21.76;52.45
78573;BME280;67862;0.000;0.000;2023-02-15T06:27:40;100755.06;;;21.72;52.56
78573;BME280;67862;0.000;0.000;2023-02-15T06:30:07;100761.34;;;21.73;52.42
78573;BME280;67862;0.000;0.000;2023-02-15T06:32:33;100773.59;;;21.70;52.64
78573;BME280;67862;0.000;0.000;2023-02-15T06:34:58;100769.47;;;21.67;52.62
78573;BME280;67862;0.000;0.000;2023-02-15T06:37:23;100769.72;;;21.66;52.86
78573;BME280;67862;0.000;0.000;2023-02-15T06:39:48;100764.00;;;21.67;53.20
78573;BME280;67862;0.000;0.000;2023-02-15T06:42:14;100762.34;;;21.66;53.02
78573;BME280;67862;0.000;0.000;2023-02-15T06:44:39;100768.91;;;21.65;52.68
78573;BME280;67862;0.000;0.000;2023-02-15T06:47:04;100767.38;;;21.75;52.88
78573;BME280;67862;0.000;0.000;2023-02-15T06:49:30;100765.75;;;21.74;52.88
78573;BME280;67862;0.000;0.000;2023-02-15T06:51:55;100761.84;;;21.69;52.83
78573;BME280;67862;0.000;0.000;2023-02-15T06:54:20;100772.19;;;21.67;53.19
78573;BME280;67862;0.000;0.000;2023-02-15T06:56:46;100772.84;;;21.53;53.04
78573;BME280;67862;0.000;0.000;2023-02-15T06:59:11;100774.75;;;21.52;53.09
78573;BME280;67862;0.000;0.000;2023-02-15T07:01:36;100781.59;;;21.55;52.96
78573;BME280;67862;0.000;0.000;2023-02-15T07:04:02;100775.63;;;21.58;52.75
78573;BME280;67862;0.000;0.000;2023-02-15T07:06:30;100783.00;;;21.57;53.00
78573;BME280;67862;0.000;0.000;2023-02-15T07:08:56;100775.31;;;21.54;52.88
78573;BME280;67862;0.000;0.000;2023-02-15T07:11:21;100775.63;;;21.58;52.63
78573;BME280;67862;0.000;0.000;2023-02-15T07:14:05;100784.09;;;21.56;52.74
78573;BME280;67862;0.000;0.000;2023-02-15T07:16:30;100783.25;;;21.56;53.07
78573;BME280;67862;0.000;0.000;2023-02-15T07:18:56;100775.31;;;21.54;52.64
78573;BME280;67862;0.000;0.000;2023-02-15T07:21:21;100782.44;;;21.55;52.94
78573;BME280;67862;0.000;0.000;2023-02-15T07:23:46;100785.44;;;21.54;52.64
78573;BME280;67862;0.000;0.000;2023-02-15T07:26:12;100772.31;;;21.56;52.75
78573;BME280;67862;0.000;0.000;2023-02-15T07:28:37;100779.13;;;21.53;52.89
78573;BME280;67862;0.000;0.000;2023-02-15T07:31:03;100769.03;;;21.54;52.77
78573;BME280;67862;0.000;0.000;2023-02-15T07:33:32;100763.81;;;21.52;52.97
78573;BME280;67862;0.000;0.000;2023-02-15T07:35:58;100776.41;;;21.53;52.72
78573;BME280;67862;0.000;0.000;2023-02-15T07:38:24;100778.78;;;21.50;52.69
78573;BME280;67862;0.000;0.000;2023-02-15T07:40:51;100772.25;;;21.51;52.49
78573;BME280;67862;0.000;0.000;2023-02-15T07:43:16;100772.84;;;21.53;52.88
78573;BME280;67862;0.000;0.000;2023-02-15T07:45:42;100778.78;;;21.50;52.50
78573;BME280;67862;0.000;0.000;2023-02-15T07:48:07;100774.97;;;21.51;52.78
78573;BME280;67862;0.000;0.000;2023-02-15T07:50:33;100775.50;;;21.48;52.75
78573;BME280;67862;0.000;0.000;2023-02-15T07:53:00;100769.22;;;21.47;52.70
78573;BME280;67862;0.000;0.000;2023-02-15T07:55:26;100770.03;;;21.48;52.67
78573;BME280;67862;0.000;0.000;2023-02-15T07:57:51;100770.03;;;21.48;52.66
78573;BME280;67862;0.000;0.000;2023-02-15T08:00:19;100771.13;;;21.47;52.95
78573;BME280;67862;0.000;0.000;2023-02-15T08:02:48;100760.19;;;21.47;52.75
78573;BME280;67862;0.000;0.000;2023-02-15T08:05:34;100763.75;;;21.47;52.71
78573;BME280;67862;0.000;0.000;2023-02-15T08:07:59;100753.91;;;21.46;52.97
78573;BME280;67862;0.000;0.000;2023-02-15T08:10:24;100756.63;;;21.46;52.87
78573;BME280;67862;0.000;0.000;2023-02-15T08:13:09;100762.34;;;21.45;52.91
78573;BME280;67862;0.000;0.000;2023-02-15T08:15:35;100757.97;;;21.43;52.54
78573;BME280;67862;0.000;0.000;2023-02-15T08:18:00;100751.16;;;21.46;52.24
78573;BME280;67862;0.000;0.000;2023-02-15T08:20:25;100755.47;;;21.42;52.41
78573;BME280;67862;0.000;0.000;2023-02-15T08:22:51;100762.91;;;21.47;52.39
78573;BME280;67862;0.000;0.000;2023-02-15T08:25:17;100749.16;;;21.41;52.55
78573;BME280;67862;0.000;0.000;2023-02-15T08:27:42;100750.34;;;21.46;52.25
78573;BME280;67862;0.000;0.000;2023-02-15T08:30:07;100753.06;;;21.46;52.62
78573;BME280;67862;0.000;0.000;2023-02-15T08:32:33;100756.06;;;21.44;52.49
78573;BME280;67862;0.000;0.000;2023-02-15T08:34:58;100750.84;;;21.42;51.90
78573;BME280;67862;0.000;0.000;2023-02-15T08:37:23;100756.88;;;21.45;52.30
78573;BME280;67862;0.000;0.000;2023-02-15T08:39:50;100755.81;;;21.46;52.34
78573;BME280;67862;0.000;0.000;2023-02-15T08:42:16;100756.63;;;21.46;52.42
78573;BME280;67862;0.000;0.000;2023-02-15T08:44:42;100756.31;;;21.42;52.00
78573;BME280;67862;0.000;0.000;2023-02-15T08:47:07;100762.00;;;21.41;52.56
78573;BME280;67862;0.000;0.000;2023-02-15T08:49:32;100753.59;;;21.42;52.29
78573;BME280;67862;0.000;0.000;2023-02-15T08:51:57;100754.16;;;21.45;52.19
78573;BME280;67862;0.000;0.000;2023-02-15T08:54:23;100760.69;;;21.43;52.08
78573;BME280;67862;0.000;0.000;2023-02-15T08:56:48;100758.44;;;21.40;51.96
78573;BME280;67862;0.000;0.000;2023-02-15T08:59:15;100756.06;;;21.44;52.28
78573;BME280;67862;0.000;0.000;2023-02-15T09:01:41;100756.06;;;21.44;52.47
78573;BME280;67862;0.000;0.000;2023-02-15T09:04:07;100747.03;;;21.43;52.31
78573;BME280;67862;0.000;0.000;2023-02-15T09:06:39;100748.94;;;21.43;52.21
78573;BME280;67862;0.000;0.000;2023-02-15T09:09:05;100752.97;;;21.40;52.23
78573;BME280;67862;0.000;0.000;2023-02-15T09:11:33;100742.66;;;21.42;52.08
78573;BME280;67862;0.000;0.000;2023-02-15T09:13:59;100752.97;;;21.40;52.34
78573;BME280;67862;0.000;0.000;2023-02-15T09:16:26;100753.81;;;21.41;51.92
78573;BME280;67862;0.000;0.000;2023-02-15T09:18:52;100751.91;;;21.41;52.33
78573;BME280;67862;0.000;0.000;2023-02-15T09:21:18;100748.69;;;21.45;52.04
78573;BME280;67862;0.000;0.000;2023-02-15T09:23:44;100748.94;;;21.43;52.14
78573;BME280;67862;0.000;0.000;2023-02-15T09:26:15;100745.38;;;21.42;52.06
78573;BME280;67862;0.000;0.000;2023-02-15T09:28:41;100745.38;;;21.42;52.46
78573;BME280;67862;0.000;0.000;2023-02-15T09:31:10;100741.31;;;21.45;52.12
78573;BME280;67862;0.000;0.000;2023-02-15T09:33:36;100743.22;;;21.45;52.04
78573;BME280;67862;0.000;0.000;2023-02-15T09:36:02;100737.19;;;21.42;52.18
78573;BME280;67862;0.000;0.000;2023-02-15T09:38:28;100735.59;;;21.47;51.83
78573;BME280;67862;0.000;0.000;2023-02-15T09:40:58;100734.78;;;21.46;51.95
78573;BME280;67862;0.000;0.000;2023-02-15T09:46:23;100728.47;;;21.46;52.26
78573;BME280;67862;0.000;0.000;2023-02-15T09:48:52;100729.63;;;21.50;52.24
78573;BME280;67862;0.000;0.000;2023-02-15T09:53:52;100731.25;;;21.51;52.14
78573;BME280;67862;0.000;0.000;2023-02-15T10:06:35;100719.25;;;21.52;51.63
78573;BME280;67862;0.000;0.000;2023-02-15T10:27:12;100708.41;;;21.57;51.70
78573;BME280;67862;0.000;0.000;2023-02-15T10:29:38;100701.28;;;21.56;51.66
78573;BME280;67862;0.000;0.000;2023-02-15T10:34:39;100699.94;;;21.58;51.43
78573;BME280;67862;0.000;0.000;2023-02-15T10:37:22;100700.19;;;21.57;51.76
78573;BME280;67862;0.000;0.000;2023-02-15T10:40:08;100699.13;;;21.58;51.35
78573;BME280;67862;0.000;0.000;2023-02-15T10:48:16;100701.59;;;21.59;51.51
78573;BME280;67862;0.000;0.000;2023-02-15T10:50:54;100701.34;;;21.61;51.59
78573;BME280;67862;0.000;0.000;2023-02-15T11:01:22;100687.63;;;21.56;51.05
78573;BME280;67862;0.000;0.000;2023-02-15T11:06:25;100680.81;;;21.58;51.47
78573;BME280;67862;0.000;0.000;2023-02-15T11:08:53;100690.16;;;21.62;51.41
78573;BME280;67862;0.000;0.000;2023-02-15T11:11:23;100685.53;;;21.63;51.21
78573;BME280;67862;0.000;0.000;2023-02-15T11:13:53;100672.94;;;21.62;50.95
78573;BME280;67862;0.000;0.000;2023-02-15T11:16:34;100672.94;;;21.62;51.24
78573;BME280;67862;0.000;0.000;2023-02-15T11:19:24;100674.59;;;21.63;51.15
78573;BME280;67862;0.000;0.000;2023-02-15T11:21:50;100660.94;;;21.63;50.98
78573;BME280;67862;0.000;0.000;2023-02-15T11:24:18;100660.66;;;21.64;50.95
78573;BME280;67862;0.000;0.000;2023-02-15T11:26:46;100662.59;;;21.64;50.72
78573;BME280;67862;0.000;0.000;2023-02-15T11:29:18;100659.59;;;21.65;51.28
78573;BME280;67862;0.000;0.000;2023-02-15T11:32:31;100657.94;;;21.64;51.00
78573;BME280;67862;0.000;0.000;2023-02-15T11:34:38;100657.94;;;21.64;51.20
78573;BME280;67862;0.000;0.000;2023-02-15T11:37:10;100648.66;;;21.65;51.03
78573;BME280;67862;0.000;0.000;2023-02-15T11:39:37;100651.66;;;21.64;51.00
78573;BME280;67862;0.000;0.000;2023-02-15T11:42:04;100649.75;;;21.64;51.03
78573;BME280;67862;0.000;0.000;2023-02-15T11:44:39;100645.66;;;21.67;51.19
78573;BME280;67862;0.000;0.000;2023-02-15T11:47:10;100645.66;;;21.67;51.21
78573;BME280;67862;0.000;0.000;2023-02-15T11:49:36;100643.75;;;21.67;51.14
78573;BME280;67862;0.000;0.000;2023-02-15T11:52:05;100636.94;;;21.70;50.87
78573;BME280;67862;0.000;0.000;2023-02-15T11:54:32;100633.97;;;21.71;51.03
78573;BME280;67862;0.000;0.000;2023-02-15T11:57:00;100626.59;;;21.72;50.68
78573;BME280;67862;0.000;0.000;2023-02-15T11:59:31;100628.25;;;21.73;50.79
78573;BME280;67862;0.000;0.000;2023-02-15T12:01:57;100624.44;;;21.74;50.85
78573;BME280;67862;0.000;0.000;2023-02-15T12:04:29;100615.16;;;21.75;50.62
78573;BME280;67862;0.000;0.000;2023-02-15T12:07:02;100619.25;;;21.78;50.80
78573;BME280;67862;0.000;0.000;2023-02-15T12:09:40;100619.81;;;21.80;50.64
78573;BME280;67862;0.000;0.000;2023-02-15T12:14:59;100614.34;;;21.80;50.50
78573;BME280;67862;0.000;0.000;2023-02-15T12:17:26;100615.19;;;21.80;50.37
78573;BME280;67862;0.000;0.000;2023-02-15T12:19:53;100609.47;;;21.82;50.46
78573;BME280;67862;0.000;0.000;2023-02-15T12:22:38;100608.38;;;21.83;50.67
78573;BME280;67862;0.000;0.000;2023-02-15T12:25:19;100607.56;;;21.82;50.37
78573;BME280;67862;0.000;0.000;2023-02-15T12:27:46;100596.09;;;21.85;50.68
78573;BME280;67862;0.000;0.000;2023-02-15T12:32:53;100594.19;;;21.86;50.25
78573;BME280;67862;0.000;0.000;2023-02-15T12:35:32;100584.09;;;21.86;50.36
78573;BME280;67862;0.000;0.000;2023-02-15T12:38:03;100587.63;;;21.87;50.18
78573;BME280;67862;0.000;0.000;2023-02-15T12:40:29;100583.00;;;21.87;50.18
78573;BME280;67862;0.000;0.000;2023-02-15T12:42:55;100582.19;;;21.87;50.04
78573;BME280;67862;0.000;0.000;2023-02-15T12:45:22;100577.53;;;21.87;49.99
78573;BME280;67862;0.000;0.000;2023-02-15T12:48:07;100579.69;;;21.85;50.39
78573;BME280;67862;0.000;0.000;2023-02-15T12:50:33;100574.78;;;21.87;49.85
78573;BME280;67862;0.000;0.000;2023-02-15T12:53:08;100579.19;;;21.88;50.12
78573;BME280;67862;0.000;0.000;2023-02-15T12:55:37;100571.25;;;21.87;50.05
78573;BME280;67862;0.000;0.000;2023-02-15T12:58:07;100569.31;;;21.87;50.11
78573;BME280;67862;0.000;0.000;2023-02-15T13:00:32;100567.69;;;21.86;50.08
78573;BME280;67862;0.000;0.000;2023-02-15T13:02:59;100554.84;;;21.87;49.82
78573;BME280;67862;0.000;0.000;2023-02-15T13:05:27;100565.78;;;21.87;50.10
78573;BME280;67862;0.000;0.000;2023-02-15T13:07:55;100559.47;;;21.86;50.03
78573;BME280;67862;0.000;0.000;2023-02-15T13:10:22;100555.66;;;21.87;49.67
78573;BME280;67862;0.000;0.000;2023-02-15T13:12:49;100555.09;;;21.85;49.63
78573;BME280;67862;0.000;0.000;2023-02-15T13:15:38;100555.63;;;21.82;50.07
78573;BME280;67862;0.000;0.000;2023-02-15T13:18:05;100551.53;;;21.85;50.08
78573;BME280;67862;0.000;0.000;2023-02-15T13:20:35;100547.44;;;21.82;50.00
78573;BME280;67862;0.000;0.000;2023-02-15T13:23:02;100548.53;;;21.81;49.94
78573;BME280;67862;0.000;0.000;2023-02-15T13:25:32;100544.09;;;21.80;49.84
78573;BME280;67862;0.000;0.000;2023-02-15T13:28:00;100543.88;;;21.82;49.82
78573;BME280;67862;0.000;0.000;2023-02-15T13:30:28;100540.88;;;21.83;50.05
78573;BME280;67862;0.000;0.000;2023-02-15T13:33:08;100538.97;;;21.84;49.75
78573;BME280;67862;0.000;0.000;2023-02-15T13:38:22;100538.13;;;21.83;49.71
78573;BME280;67862;0.000;0.000;2023-02-15T13:41:00;100540.88;;;21.83;49.68
78573;BME280;67862;0.000;0.000;2023-02-15T13:46:20;100538.91;;;21.79;49.64
78573;BME280;67862;0.000;0.000;2023-02-15T13:51:41;100526.88;;;21.80;49.90
78573;BME280;67862;0.000;0.000;2023-02-15T13:57:04;100531.78;;;21.78;49.94
78573;BME280;67862;0.000;0.000;2023-02-15T14:15:29;100517.84;;;21.74;49.84
78573;BME280;67862;0.000;0.000;2023-02-15T14:23:17;100522.22;;;21.75;49.88
78573;BME280;67862;0.000;0.000;2023-02-15T14:25:57;100533.41;;;21.74;50.05
78573;BME280;67862;0.000;0.000;2023-02-15T14:30:50;100537.22;;;21.73;49.88
78573;BME280;67862;0.000;0.000;2023-02-15T14:33:28;100534.72;;;21.71;49.95
78573;BME280;67862;0.000;0.000;2023-02-15T14:35:55;100529.53;;;21.69;50.24
78573;BME280;67862;0.000;0.000;2023-02-15T14:41:17;100529.25;;;21.71;50.31
78573;BME280;67862;0.000;0.000;2023-02-15T14:49:17;100527.06;;;21.68;50.06
78573;BME280;67862;0.000;0.000;2023-02-15T14:56:39;100525.69;;;21.65;49.85
78573;BME280;67862;0.000;0.000;2023-02-15T15:01:36;100525.97;;;21.69;49.98
78573;BME280;67862;0.000;0.000;2023-02-15T15:04:06;100518.03;;;21.67;49.81
78573;BME280;67862;0.000;0.000;2023-02-15T15:06:36;100514.75;;;21.65;50.05
78573;BME280;67862;0.000;0.000;2023-02-15T15:11:38;100515.56;;;21.66;49.82
78573;BME280;67862;0.000;0.000;2023-02-15T15:14:03;100512.84;;;21.66;50.16
78573;BME280;67862;0.000;0.000;2023-02-15T15:19:01;100511.19;;;21.65;50.19
78573;BME280;67862;0.000;0.000;2023-02-15T15:24:33;100507.38;;;21.66;50.14
78573;BME280;67862;0.000;0.000;2023-02-15T15:29:40;100492.88;;;21.65;49.59
78573;BME280;67862;0.000;0.000;2023-02-15T15:32:06;100503.00;;;21.65;49.75
78573;BME280;67862;0.000;0.000;2023-02-15T15:42:31;100498.34;;;21.65;50.08
78573;BME280;67862;0.000;0.000;2023-02-15T15:45:02;100497.25;;;21.66;49.89
78573;BME280;67862;0.000;0.000;2023-02-15T15:49:58;100486.59;;;21.65;50.02
78573;BME280;67862;0.000;0.000;2023-02-15T15:52:24;100490.16;;;21.65;50.30
78573;BME280;67862;0.000;0.000;2023-02-15T15:54:52;100484.69;;;21.65;50.36
78573;BME280;67862;0.000;0.000;2023-02-15T15:57:26;100479.78;;;21.67;50.53
78573;BME280;67862;0.000;0.000;2023-02-15T15:59:53;100480.59;;;21.68;50.28
78573;BME280;67862;0.000;0.000;2023-02-15T16:02:18;100484.97;;;21.69;50.65
78573;BME280;67862;0.000;0.000;2023-02-15T16:04:44;100490.19;;;21.70;50.51
78573;BME280;67862;0.000;0.000;2023-02-15T16:12:29;100491.00;;;21.71;50.58
78573;BME280;67862;0.000;0.000;2023-02-15T16:14:55;100491.84;;;21.71;50.72
78573;BME280;67862;0.000;0.000;2023-02-15T16:17:25;100493.72;;;21.71;50.48
78573;BME280;67862;0.000;0.000;2023-02-15T16:19:53;100496.22;;;21.73;50.83
78573;BME280;67862;0.000;0.000;2023-02-15T16:22:23;100496.53;;;21.76;50.86
78573;BME280;67862;0.000;0.000;2023-02-15T16:27:41;100494.41;;;21.83;50.79
78573;BME280;67862;0.000;0.000;2023-02-15T16:32:44;100491.69;;;21.88;50.56
78573;BME280;67862;0.000;0.000;2023-02-15T16:35:13;100496.06;;;21.89;50.51
78573;BME280;67862;0.000;0.000;2023-02-15T16:37:38;100492.00;;;21.92;50.41
78573;BME280;67862;0.000;0.000;2023-02-15T16:40:04;100487.38;;;21.92;50.14
78573;BME280;67862;0.000;0.000;2023-02-15T16:42:29;100487.94;;;21.94;50.48
78573;BME280;67862;0.000;0.000;2023-02-15T16:45:28;100494.75;;;21.92;50.68
78573;BME280;67862;0.000;0.000;2023-02-15T16:47:48;100493.94;;;21.91;50.42
78573;BME280;67862;0.000;0.000;2023-02-15T16:50:19;100492.25;;;21.90;50.70
78573;BME280;67862;0.000;0.000;2023-02-15T16:52:45;100499.94;;;21.93;50.83
78573;BME280;67862;0.000;0.000;2023-02-15T16:55:19;100496.69;;;21.96;50.71
78573;BME280;67862;0.000;0.000;2023-02-15T16:57:46;100486.31;;;21.98;51.32
78573;BME280;67862;0.000;0.000;2023-02-15T17:00:18;100489.63;;;22.00;51.56
78573;BME280;67862;0.000;0.000;2023-02-15T17:03:19;100490.69;;;21.99;51.67
78573;BME280;67862;0.000;0.000;2023-02-15T17:08:26;100492.34;;;22.00;52.12
78573;BME280;67862;0.000;0.000;2023-02-15T17:13:23;100497.25;;;21.98;52.09
78573;BME280;67862;0.000;0.000;2023-02-15T17:18:38;100502.19;;;22.02;52.29
78573;BME280;67862;0.000;0.000;2023-02-15T17:21:16;100497.81;;;22.00;52.36
78573;BME280;67862;0.000;0.000;2023-02-15T17:23:43;100502.19;;;22.02;52.32
78573;BME280;67862;0.000;0.000;2023-02-15T17:26:14;100504.34;;;21.99;52.35
78573;BME280;67862;0.000;0.000;2023-02-15T17:28:55;100500.78;;;21.99;52.90
78573;BME280;67862;0.000;0.000;2023-02-15T17:31:24;100499.97;;;21.98;52.64
78573;BME280;67862;0.000;0.000;2023-02-15T17:33:51;100499.16;;;21.98;52.67
78573;BME280;67862;0.000;0.000;2023-02-15T17:36:20;100500.50;;;21.95;52.89
78573;BME280;67862;0.000;0.000;2023-02-15T17:41:27;100504.59;;;21.93;52.83
78573;BME280;67862;0.000;0.000;2023-02-15T17:43:53;100507.06;;;21.94;53.09
78573;BME280;67862;0.000;0.000;2023-02-15T17:46:19;100498.59;;;21.96;52.75
78573;BME280;67862;0.000;0.000;2023-02-15T17:48:48;100503.53;;;21.99;53.21
78573;BME280;67862;0.000;0.000;2023-02-15T17:51:14;100500.25;;;21.97;52.89
78573;BME280;67862;0.000;0.000;2023-02-15T17:53:40;100499.69;;;21.95;52.87
78573;BME280;67862;0.000;0.000;2023-02-15T17:56:05;100501.59;;;21.94;53.99
78573;BME280;67862;0.000;0.000;2023-02-15T17:58:39;100497.78;;;21.95;55.65
78573;BME280;67862;0.000;0.000;2023-02-15T18:01:10;100498.59;;;21.96;56.38
78573;BME280;67862;0.000;0.000;2023-02-15T18:03:56;100495.59;;;21.97;57.42
78573;BME280;67862;0.000;0.000;2023-02-15T18:06:41;100493.19;;;22.01;57.30
78573;BME280;67862;0.000;0.000;2023-02-15T18:09:26;100492.09;;;22.02;57.47
78573;BME280;67862;0.000;0.000;2023-02-15T18:12:20;100486.34;;;22.04;57.00
78573;BME280;67862;0.000;0.000;2023-02-15T18:14:48;100487.44;;;22.03;57.02
78573;BME280;67862;0.000;0.000;2023-02-15T18:17:13;100484.72;;;22.03;56.61
78573;BME280;67862;0.000;0.000;2023-02-15T18:19:40;100480.31;;;22.02;56.48
78573;BME280;67862;0.000;0.000;2023-02-15T18:22:09;100488.53;;;22.02;56.58
78573;BME280;67862;0.000;0.000;2023-02-15T18:24:35;100487.13;;;21.99;56.46
78573;BME280;67862;0.000;0.000;2023-02-15T18:27:00;100481.41;;;22.00;56.01
78573;BME280;67862;0.000;0.000;2023-02-15T18:29:26;100484.16;;;22.00;56.13
78573;BME280;67862;0.000;0.000;2023-02-15T18:31:51;100477.00;;;21.99;56.37
78573;BME280;67862;0.000;0.000;2023-02-15T18:37:02;100474.81;;;21.96;56.26
78573;BME280;67862;0.000;0.000;2023-02-15T18:39:37;100475.91;;;21.95;56.04
78573;BME280;67862;0.000;0.000;2023-02-15T18:42:14;100488.75;;;21.95;56.25
78573;BME280;67862;0.000;0.000;2023-02-15T18:44:42;100480.28;;;21.96;56.23
78573;BME280;67862;0.000;0.000;2023-02-15T18:47:07;100491.47;;;21.95;56.03
78573;BME280;67862;0.000;0.000;2023-02-15T18:49:33;100480.53;;;21.95;57.43
78573;BME280;67862;0.000;0.000;2023-02-15T18:51:58;100474.25;;;21.94;58.23
78573;BME280;67862;0.000;0.000;2023-02-15T18:54:23;100479.72;;;21.94;58.62
78573;BME280;67862;0.000;0.000;2023-02-15T18:56:59;100483.00;;;21.96;58.69
78573;BME280;67862;0.000;0.000;2023-02-15T18:59:26;100478.91;;;21.99;59.00
78573;BME280;67862;0.000;0.000;2023-02-15T19:01:52;100487.94;;;21.99;59.26
78573;BME280;67862;0.000;0.000;2023-02-15T19:04:18;100477.53;;;21.96;58.96
78573;BME280;67862;0.000;0.000;2023-02-15T19:06:44;100473.97;;;21.96;59.46
78573;BME280;67862;0.000;0.000;2023-02-15T19:09:15;100477.53;;;21.96;59.37
78573;BME280;67862;0.000;0.000;2023-02-15T19:11:41;100476.72;;;21.96;59.79
78573;BME280;67862;0.000;0.000;2023-02-15T19:14:11;100471.25;;;21.96;59.85
78573;BME280;67862;0.000;0.000;2023-02-15T19:16:43;100472.06;;;21.96;59.12
78573;BME280;67862;0.000;0.000;2023-02-15T19:19:09;100481.91;;;21.97;59.71
78573;BME280;67862;0.000;0.000;2023-02-15T19:21:34;100475.06;;;21.95;59.85
78573;BME280;67862;0.000;0.000;2023-02-15T19:24:00;100478.09;;;21.98;59.35
78573;BME280;67862;0.000;0.000;2023-02-15T19:26:27;100477.28;;;21.98;59.67
78573;BME280;67862;0.000;0.000;2023-02-15T19:28:58;100475.63;;;21.97;59.55
78573;BME280;67862;0.000;0.000;2023-02-15T19:31:23;100491.22;;;21.96;59.63
78573;BME280;67862;0.000;0.000;2023-02-15T19:33:48;100476.72;;;21.96;59.65
78573;BME280;67862;0.000;0.000;2023-02-15T19:36:15;100477.53;;;21.96;59.43
78573;BME280;67862;0.000;0.000;2023-02-15T19:38:41;100475.06;;;21.95;59.61
78573;BME280;67862;0.000;0.000;2023-02-15T19:41:08;100471.53;;;21.94;59.89
78573;BME280;67862;0.000;0.000;2023-02-15T19:43:39;100470.97;;;21.92;59.86
78573;BME280;67862;0.000;0.000;2023-02-15T19:46:05;100474.78;;;21.91;59.76
78573;BME280;67862;0.000;0.000;2023-02-15T19:48:30;100464.69;;;21.92;59.69
78573;BME280;67862;0.000;0.000;2023-02-15T19:50:56;100467.66;;;21.90;59.87
78573;BME280;67862;0.000;0.000;2023-02-15T19:53:22;100473.97;;;21.91;60.34
78573;BME280;67862;0.000;0.000;2023-02-15T19:55:49;100473.13;;;21.90;60.06
78573;BME280;67862;0.000;0.000;2023-02-15T19:58:14;100465.75;;;21.91;60.16
78573;BME280;67862;0.000;0.000;2023-02-15T20:00:43;100472.28;;;21.90;60.11
78573;BME280;67862;0.000;0.000;2023-02-15T20:03:08;100462.72;;;21.87;59.81
78573;BME280;67862;0.000;0.000;2023-02-15T20:05:34;100465.72;;;21.86;59.69
78573;BME280;67862;0.000;0.000;2023-02-15T20:08:04;100477.75;;;21.85;59.61
78573;BME280;67862;0.000;0.000;2023-02-15T20:10:32;100475.81;;;21.85;59.77
78573;BME280;67862;0.000;0.000;2023-02-15T20:12:58;100471.72;;;21.83;59.48
78573;BME280;67862;0.000;0.000;2023-02-15T20:15:24;100472.53;;;21.83;59.37
78573;BME280;67862;0.000;0.000;2023-02-15T20:17:51;100468.38;;;21.81;59.33
78573;BME280;67862;0.000;0.000;2023-02-15T20:20:18;100478.00;;;21.83;59.54
78573;BME280;67862;0.000;0.000;2023-02-15T20:22:46;100477.19;;;21.83;59.26
78573;BME280;67862;0.000;0.000;2023-02-15T20:25:13;100474.72;;;21.81;59.40
78573;BME280;67862;0.000;0.000;2023-02-15T20:27:40;100465.94;;;21.79;59.22
78573;BME280;67862;0.000;0.000;2023-02-15T20:30:15;100474.94;;;21.80;59.76
78573;BME280;67862;0.000;0.000;2023-02-15T20:32:41;100474.13;;;21.79;59.22
78573;BME280;67862;0.000;0.000;2023-02-15T20:35:11;100473.56;;;21.77;59.68
78573;BME280;67862;0.000;0.000;2023-02-15T20:37:37;100468.97;;;21.83;59.54
78573;BME280;67862;0.000;0.000;2023-02-15T20:40:27;100478.56;;;21.85;59.78
78573;BME280;67862;0.000;0.000;2023-02-15T20:42:55;100462.97;;;21.86;59.84
78573;BME280;67862;0.000;0.000;2023-02-15T20:47:47;100469.25;;;21.86;59.65
78573;BME280;67862;0.000;0.000;2023-02-15T20:50:17;100459.41;;;21.85;59.64
78573;BME280;67862;0.000;0.000;2023-02-15T20:52:43;100464.06;;;21.85;60.03
78573;BME280;67862;0.000;0.000;2023-02-15T20:55:17;100453.97;;;21.85;59.79
78573;BME280;67862;0.000;0.000;2023-02-15T20:57:43;100449.03;;;21.82;60.16
78573;BME280;67862;0.000;0.000;2023-02-15T21:00:30;100449.53;;;21.79;60.30
78573;BME280;67862;0.000;0.000;2023-02-15T21:02:56;100451.16;;;21.80;60.07
78573;BME280;67862;0.000;0.000;2023-02-15T21:05:27;100447.38;;;21.81;60.22
78573;BME280;67862;0.000;0.000;2023-02-15T21:07:55;100437.50;;;21.80;60.05
78573;BME280;67862;0.000;0.000;2023-02-15T21:10:23;100451.16;;;21.80;60.32
78573;BME280;67862;0.000;0.000;2023-02-15T21:12:49;100441.91;;;21.81;60.04
78573;BME280;67862;0.000;0.000;2023-02-15T21:15:29;100448.69;;;21.79;59.98
78573;BME280;67862;0.000;0.000;2023-02-15T21:17:55;100454.16;;;21.79;60.16
78573;BME280;67862;0.000;0.000;2023-02-15T21:20:22;100456.09;;;21.78;60.15
78573;BME280;67862;0.000;0.000;2023-02-15T21:22:48;100447.31;;;21.76;59.88
78573;BME280;67862;0.000;0.000;2023-02-15T21:25:15;100455.53;;;21.76;60.29
78573;BME280;67862;0.000;0.000;2023-02-15T21:30:45;100442.41;;;21.73;59.96